sensor_id;sensor_type;location;lat;lon;timestamp;temperature;humidity
12438;DHT22;6283;51.330;12.374;2023-10-13T00:02:02;15.70;99.90
12438;DHT22;6283;51.330;12.374;2023-10-13T00:04:31;15.80;99.90
12438;DHT22;6283;51.330;12.374;2023-10-13T00:06:58;15.70;99.90
12438;DHT22;6283;51.330;12.374;2023-10-13T00:09:25;15.70;99.90
12438;DHT22;6283;51.330;12.374;2023-10-13T00:11:57;15.80;99.90
12438;DHT22;6283;51.330;12.374;2023-10-13T00:14:23;15.80;99.90
12438;DHT22;6283;51.330;12.374;2023-10-13T00:16:57;15.80;99.90
12438;DHT22;6283;51.330;12.374;2023-10-13T00:19:45;15.80;99.90
12438;DHT22;6283;51.330;12.374;2023-10-13T00:22:13;15.80;99.90
12438;DHT22;6283;51.330;12.374;2023-10-13T00:24:42;15.80;99.90
12438;DHT22;6283;51.330;12.374;2023-10-13T00:27:13;15.80;99.90
12438;DHT22;6283;51.330;12.374;2023-10-13T00:30:06;15.90;99.90
12438;DHT22;6283;51.330;12.374;2023-10-13T00:33:10;15.70;99.90
12438;DHT22;6283;51.330;12.374;2023-10-13T00:35:36;15.70;99.90
12438;DHT22;6283;51.330;12.374;2023-10-13T00:38:05;15.70;99.90
12438;DHT22;6283;51.330;12.374;2023-10-13T00:40:43;15.50;99.90
12438;DHT22;6283;51.330;12.374;2023-10-13T00:43:18;15.60;99.90
12438;DHT22;6283;51.330;12.374;2023-10-13T00:48:28;15.70;99.90
12438;DHT22;6283;51.330;12.374;2023-10-13T00:50:58;15.60;99.90
12438;DHT22;6283;51.330;12.374;2023-10-13T00:53:37;15.70;99.90
12438;DHT22;6283;51.330;12.374;2023-10-13T00:56:06;15.70;99.90
12438;DHT22;6283;51.330;12.374;2023-10-13T00:58:49;15.60;99.90
12438;DHT22;6283;51.330;12.374;2023-10-13T01:01:16;15.70;99.90
12438;DHT22;6283;51.330;12.374;2023-10-13T01:03:49;15.90;99.90
12438;DHT22;6283;51.330;12.374;2023-10-13T01:06:19;15.50;99.90
12438;DHT22;6283;51.330;12.374;2023-10-13T01:08:46;15.70;99.90
12438;DHT22;6283;51.330;12.374;2023-10-13T01:11:17;15.70;99.90
12438;DHT22;6283;51.330;12.374;2023-10-13T01:13:43;15.60;99.90
12438;DHT22;6283;51.330;12.374;2023-10-13T01:16:08;15.60;99.90
12438;DHT22;6283;51.330;12.374;2023-10-13T01:18:35;16.00;99.90
12438;DHT22;6283;51.330;12.374;2023-10-13T01:21:12;15.80;99.90
12438;DHT22;6283;51.330;12.374;2023-10-13T01:23:41;15.80;99.90
12438;DHT22;6283;51.330;12.374;2023-10-13T01:26:08;15.60;99.90
12438;DHT22;6283;51.330;12.374;2023-10-13T01:28:34;15.80;99.90
12438;DHT22;6283;51.330;12.374;2023-10-13T01:31:11;15.90;99.90
12438;DHT22;6283;51.330;12.374;2023-10-13T01:33:38;15.90;99.90
12438;DHT22;6283;51.330;12.374;2023-10-13T01:36:04;15.90;99.90
12438;DHT22;6283;51.330;12.374;2023-10-13T01:38:34;15.90;99.90
12438;DHT22;6283;51.330;12.374;2023-10-13T01:41:05;15.70;99.90
12438;DHT22;6283;51.330;12.374;2023-10-13T01:43:30;15.70;99.90
12438;DHT22;6283;51.330;12.374;2023-10-13T01:45:56;15.90;99.90
12438;DHT22;6283;51.330;12.374;2023-10-13T01:48:22;15.90;99.90
12438;DHT22;6283;51.330;12.374;2023-10-13T01:50:47;15.90;99.90
12438;DHT22;6283;51.330;12.374;2023-10-13T01:53:14;15.90;99.90
12438;DHT22;6283;51.330;12.374;2023-10-13T01:55:43;15.80;99.90
12438;DHT22;6283;51.330;12.374;2023-10-13T01:58:13;15.90;99.90
12438;DHT22;6283;51.330;12.374;2023-10-13T02:00:44;15.80;99.90
12438;DHT22;6283;51.330;12.374;2023-10-13T02:03:10;15.60;99.90
12438;DHT22;6283;51.330;12.374;2023-10-13T02:05:46;15.90;99.90
12438;DHT22;6283;51.330;12.374;2023-10-13T02:08:22;15.90;99.90
12438;DHT22;6283;51.330;12.374;2023-10-13T02:10:53;16.00;99.90
12438;DHT22;6283;51.330;12.374;2023-10-13T02:13:20;15.90;99.90
12438;DHT22;6283;51.330;12.374;2023-10-13T02:15:48;16.00;99.90
12438;DHT22;6283;51.330;12.374;2023-10-13T02:18:18;15.80;99.90
12438;DHT22;6283;51.330;12.374;2023-10-13T02:20:55;15.90;99.90
12438;DHT22;6283;51.330;12.374;2023-10-13T02:23:22;15.80;99.90
12438;DHT22;6283;51.330;12.374;2023-10-13T02:25:49;15.90;99.90
12438;DHT22;6283;51.330;12.374;2023-10-13T02:28:29;15.80;99.90
12438;DHT22;6283;51.330;12.374;2023-10-13T02:31:02;15.70;99.90
12438;DHT22;6283;51.330;12.374;2023-10-13T02:33:29;15.60;99.90
12438;DHT22;6283;51.330;12.374;2023-10-13T02:36:10;15.70;99.90
12438;DHT22;6283;51.330;12.374;2023-10-13T02:38:38;15.60;99.90
12438;DHT22;6283;51.330;12.374;2023-10-13T02:41:04;15.40;99.90
12438;DHT22;6283;51.330;12.374;2023-10-13T02:43:35;15.50;99.90
12438;DHT22;6283;51.330;12.374;2023-10-13T02:46:02;15.50;99.90
12438;DHT22;6283;51.330;12.374;2023-10-13T02:48:28;15.40;99.90
12438;DHT22;6283;51.330;12.374;2023-10-13T02:51:08;15.50;99.90
12438;DHT22;6283;51.330;12.374;2023-10-13T02:53:54;15.50;99.90
12438;DHT22;6283;51.330;12.374;2023-10-13T02:56:27;15.50;99.90
12438;DHT22;6283;51.330;12.374;2023-10-13T02:58:53;15.50;99.90
12438;DHT22;6283;51.330;12.374;2023-10-13T03:01:22;15.50;99.90
12438;DHT22;6283;51.330;12.374;2023-10-13T03:03:55;15.50;99.90
12438;DHT22;6283;51.330;12.374;2023-10-13T03:06:22;15.50;99.90
12438;DHT22;6283;51.330;12.374;2023-10-13T03:08:51;15.60;99.90
12438;DHT22;6283;51.330;12.374;2023-10-13T03:11:18;15.50;99.90
12438;DHT22;6283;51.330;12.374;2023-10-13T03:13:47;15.50;99.90
12438;DHT22;6283;51.330;12.374;2023-10-13T03:16:14;15.40;99.90
12438;DHT22;6283;51.330;12.374;2023-10-13T03:18:48;15.50;99.90
12438;DHT22;6283;51.330;12.374;2023-10-13T03:21:20;15.50;99.90
12438;DHT22;6283;51.330;12.374;2023-10-13T03:23:56;15.50;99.90
12438;DHT22;6283;51.330;12.374;2023-10-13T03:26:22;15.50;99.90
12438;DHT22;6283;51.330;12.374;2023-10-13T03:28:47;15.50;99.90
12438;DHT22;6283;51.330;12.374;2023-10-13T03:31:20;15.50;99.90
12438;DHT22;6283;51.330;12.374;2023-10-13T03:33:52;15.60;99.90
12438;DHT22;6283;51.330;12.374;2023-10-13T03:36:25;15.30;99.90
12438;DHT22;6283;51.330;12.374;2023-10-13T03:39:09;15.50;99.90
12438;DHT22;6283;51.330;12.374;2023-10-13T03:41:36;15.50;99.90
12438;DHT22;6283;51.330;12.374;2023-10-13T03:44:04;15.70;99.90
12438;DHT22;6283;51.330;12.374;2023-10-13T03:46:35;15.60;99.90
12438;DHT22;6283;51.330;12.374;2023-10-13T03:49:02;15.80;99.90
12438;DHT22;6283;51.330;12.374;2023-10-13T03:51:31;15.60;99.90
12438;DHT22;6283;51.330;12.374;2023-10-13T03:53:57;15.70;99.90
12438;DHT22;6283;51.330;12.374;2023-10-13T03:56:28;15.70;99.90
12438;DHT22;6283;51.330;12.374;2023-10-13T03:58:55;15.90;99.90
12438;DHT22;6283;51.330;12.374;2023-10-13T04:01:25;15.80;99.90
12438;DHT22;6283;51.330;12.374;2023-10-13T04:04:00;15.80;99.90
12438;DHT22;6283;51.330;12.374;2023-10-13T04:06:34;15.80;99.90
12438;DHT22;6283;51.330;12.374;2023-10-13T04:09:18;15.80;99.90
12438;DHT22;6283;51.330;12.374;2023-10-13T04:12:03;15.90;99.90
12438;DHT22;6283;51.330;12.374;2023-10-13T04:14:30;15.90;99.90
12438;DHT22;6283;51.330;12.374;2023-10-13T04:17:14;15.80;82.60
12438;DHT22;6283;51.330;12.374;2023-10-13T04:19:40;15.90;56.30
12438;DHT22;6283;51.330;12.374;2023-10-13T04:22:42;16.00;13.10
12438;DHT22;6283;51.330;12.374;2023-10-13T04:25:18;16.00;1.00
12438;DHT22;6283;51.330;12.374;2023-10-13T04:28:03;16.00;1.00
12438;DHT22;6283;51.330;12.374;2023-10-13T04:30:46;16.00;1.00
12438;DHT22;6283;51.330;12.374;2023-10-13T04:33:29;16.00;1.00
12438;DHT22;6283;51.330;12.374;2023-10-13T04:36:12;16.00;1.00
12438;DHT22;6283;51.330;12.374;2023-10-13T04:38:58;15.90;1.00
12438;DHT22;6283;51.330;12.374;2023-10-13T04:41:39;16.00;1.00
12438;DHT22;6283;51.330;12.374;2023-10-13T04:44:09;16.00;1.00
12438;DHT22;6283;51.330;12.374;2023-10-13T04:46:54;16.00;1.00
12438;DHT22;6283;51.330;12.374;2023-10-13T04:49:20;16.00;1.00
12438;DHT22;6283;51.330;12.374;2023-10-13T04:52:05;15.90;1.00
12438;DHT22;6283;51.330;12.374;2023-10-13T04:54:35;16.00;1.00
12438;DHT22;6283;51.330;12.374;2023-10-13T04:57:19;15.90;1.00
12438;DHT22;6283;51.330;12.374;2023-10-13T05:00:15;15.90;1.00
12438;DHT22;6283;51.330;12.374;2023-10-13T05:02:47;15.90;1.00
12438;DHT22;6283;51.330;12.374;2023-10-13T05:05:22;16.00;1.00
12438;DHT22;6283;51.330;12.374;2023-10-13T05:07:50;16.00;1.00
12438;DHT22;6283;51.330;12.374;2023-10-13T05:10:35;16.00;1.00
12438;DHT22;6283;51.330;12.374;2023-10-13T05:13:19;16.10;1.00
12438;DHT22;6283;51.330;12.374;2023-10-13T05:16:03;16.10;1.00
12438;DHT22;6283;51.330;12.374;2023-10-13T05:18:47;16.10;1.00
12438;DHT22;6283;51.330;12.374;2023-10-13T05:21:31;16.20;1.00
12438;DHT22;6283;51.330;12.374;2023-10-13T05:24:15;16.20;1.00
12438;DHT22;6283;51.330;12.374;2023-10-13T05:26:59;16.20;1.00
12438;DHT22;6283;51.330;12.374;2023-10-13T05:29:45;16.30;1.00
12438;DHT22;6283;51.330;12.374;2023-10-13T05:32:30;16.30;1.00
12438;DHT22;6283;51.330;12.374;2023-10-13T05:35:15;16.30;1.00
12438;DHT22;6283;51.330;12.374;2023-10-13T05:38:02;16.30;1.00
12438;DHT22;6283;51.330;12.374;2023-10-13T05:40:58;16.30;1.00
12438;DHT22;6283;51.330;12.374;2023-10-13T05:43:43;16.50;99.90
12438;DHT22;6283;51.330;12.374;2023-10-13T05:46:27;16.40;99.90
12438;DHT22;6283;51.330;12.374;2023-10-13T05:48:54;16.40;99.90
12438;DHT22;6283;51.330;12.374;2023-10-13T05:51:32;16.40;99.90
12438;DHT22;6283;51.330;12.374;2023-10-13T05:54:01;16.50;99.90
12438;DHT22;6283;51.330;12.374;2023-10-13T05:56:48;16.40;99.90
12438;DHT22;6283;51.330;12.374;2023-10-13T05:59:36;16.40;99.90
12438;DHT22;6283;51.330;12.374;2023-10-13T06:02:20;16.40;99.90
12438;DHT22;6283;51.330;12.374;2023-10-13T06:05:06;16.50;99.90
12438;DHT22;6283;51.330;12.374;2023-10-13T06:07:51;16.50;99.90
12438;DHT22;6283;51.330;12.374;2023-10-13T06:10:36;16.50;99.90
12438;DHT22;6283;51.330;12.374;2023-10-13T06:13:20;16.50;99.90
12438;DHT22;6283;51.330;12.374;2023-10-13T06:16:06;16.50;99.90
12438;DHT22;6283;51.330;12.374;2023-10-13T06:18:50;16.50;99.90
12438;DHT22;6283;51.330;12.374;2023-10-13T06:21:34;16.60;99.90
12438;DHT22;6283;51.330;12.374;2023-10-13T06:24:18;16.60;99.90
12438;DHT22;6283;51.330;12.374;2023-10-13T06:27:02;16.60;53.60
12438;DHT22;6283;51.330;12.374;2023-10-13T06:29:46;16.60;43.80
12438;DHT22;6283;51.330;12.374;2023-10-13T06:32:12;16.60;25.70
12438;DHT22;6283;51.330;12.374;2023-10-13T06:34:38;16.70;1.00
12438;DHT22;6283;51.330;12.374;2023-10-13T06:37:13;16.70;1.00
12438;DHT22;6283;51.330;12.374;2023-10-13T06:39:50;16.70;1.00
12438;DHT22;6283;51.330;12.374;2023-10-13T06:42:15;16.80;1.00
12438;DHT22;6283;51.330;12.374;2023-10-13T06:44:42;16.80;1.00
12438;DHT22;6283;51.330;12.374;2023-10-13T06:47:11;16.80;99.90
12438;DHT22;6283;51.330;12.374;2023-10-13T06:49:39;16.90;99.90
12438;DHT22;6283;51.330;12.374;2023-10-13T06:52:05;16.90;99.90
12438;DHT22;6283;51.330;12.374;2023-10-13T06:54:36;17.00;99.90
12438;DHT22;6283;51.330;12.374;2023-10-13T06:57:05;17.00;8.20
12438;DHT22;6283;51.330;12.374;2023-10-13T06:59:33;17.00;1.00
12438;DHT22;6283;51.330;12.374;2023-10-13T07:02:02;17.10;1.00
12438;DHT22;6283;51.330;12.374;2023-10-13T07:04:32;17.10;1.00
12438;DHT22;6283;51.330;12.374;2023-10-13T07:06:58;17.20;99.90
12438;DHT22;6283;51.330;12.374;2023-10-13T07:09:26;17.20;99.90
12438;DHT22;6283;51.330;12.374;2023-10-13T07:12:04;17.30;59.80
12438;DHT22;6283;51.330;12.374;2023-10-13T07:14:45;17.40;1.00
12438;DHT22;6283;51.330;12.374;2023-10-13T07:17:18;17.40;1.00
12438;DHT22;6283;51.330;12.374;2023-10-13T07:19:53;17.40;99.90
12438;DHT22;6283;51.330;12.374;2023-10-13T07:22:19;17.50;99.90
12438;DHT22;6283;51.330;12.374;2023-10-13T07:24:49;17.50;45.50
12438;DHT22;6283;51.330;12.374;2023-10-13T07:27:21;17.60;1.00
12438;DHT22;6283;51.330;12.374;2023-10-13T07:29:56;17.60;1.00
12438;DHT22;6283;51.330;12.374;2023-10-13T07:32:25;17.60;99.90
12438;DHT22;6283;51.330;12.374;2023-10-13T07:34:54;17.70;99.90
12438;DHT22;6283;51.330;12.374;2023-10-13T07:37:23;17.70;99.90
12438;DHT22;6283;51.330;12.374;2023-10-13T07:39:55;17.80;28.10
12438;DHT22;6283;51.330;12.374;2023-10-13T07:42:26;17.80;1.00
12438;DHT22;6283;51.330;12.374;2023-10-13T07:45:05;17.80;1.00
12438;DHT22;6283;51.330;12.374;2023-10-13T07:47:31;17.90;1.00
12438;DHT22;6283;51.330;12.374;2023-10-13T07:49:58;17.90;99.90
12438;DHT22;6283;51.330;12.374;2023-10-13T07:52:24;17.90;1.00
12438;DHT22;6283;51.330;12.374;2023-10-13T07:54:52;18.00;99.90
12438;DHT22;6283;51.330;12.374;2023-10-13T07:57:40;18.00;1.00
12438;DHT22;6283;51.330;12.374;2023-10-13T08:00:23;18.10;99.90
12438;DHT22;6283;51.330;12.374;2023-10-13T08:03:13;18.20;1.00
12438;DHT22;6283;51.330;12.374;2023-10-13T08:05:44;18.20;1.00
12438;DHT22;6283;51.330;12.374;2023-10-13T08:08:29;18.30;99.90
12438;DHT22;6283;51.330;12.374;2023-10-13T08:11:10;18.30;99.90
12438;DHT22;6283;51.330;12.374;2023-10-13T08:14:05;18.30;99.90
12438;DHT22;6283;51.330;12.374;2023-10-13T08:16:49;18.30;99.90
12438;DHT22;6283;51.330;12.374;2023-10-13T08:19:19;18.40;99.90
12438;DHT22;6283;51.330;12.374;2023-10-13T08:21:46;18.40;99.90
12438;DHT22;6283;51.330;12.374;2023-10-13T08:24:17;18.50;52.50
12438;DHT22;6283;51.330;12.374;2023-10-13T08:26:53;18.50;27.60
12438;DHT22;6283;51.330;12.374;2023-10-13T08:29:37;18.50;24.50
12438;DHT22;6283;51.330;12.374;2023-10-13T08:32:24;18.60;1.00
12438;DHT22;6283;51.330;12.374;2023-10-13T08:34:54;18.60;1.00
12438;DHT22;6283;51.330;12.374;2023-10-13T08:37:21;18.60;1.00
12438;DHT22;6283;51.330;12.374;2023-10-13T08:39:52;18.60;1.00
12438;DHT22;6283;51.330;12.374;2023-10-13T08:42:44;18.60;1.00
12438;DHT22;6283;51.330;12.374;2023-10-13T08:45:16;18.60;1.00
12438;DHT22;6283;51.330;12.374;2023-10-13T08:47:55;18.60;1.00
12438;DHT22;6283;51.330;12.374;2023-10-13T08:53:28;18.70;1.00
12438;DHT22;6283;51.330;12.374;2023-10-13T08:56:07;18.70;1.00
12438;DHT22;6283;51.330;12.374;2023-10-13T08:58:47;18.70;1.00
12438;DHT22;6283;51.330;12.374;2023-10-13T09:04:20;18.80;1.00
12438;DHT22;6283;51.330;12.374;2023-10-13T09:07:12;18.90;1.00
12438;DHT22;6283;51.330;12.374;2023-10-13T09:09:48;19.00;1.00
12438;DHT22;6283;51.330;12.374;2023-10-13T09:14:57;19.10;1.00
12438;DHT22;6283;51.330;12.374;2023-10-13T09:17:26;19.10;1.00
12438;DHT22;6283;51.330;12.374;2023-10-13T09:20:05;19.10;1.00
12438;DHT22;6283;51.330;12.374;2023-10-13T09:22:57;19.10;1.00
12438;DHT22;6283;51.330;12.374;2023-10-13T09:25:29;19.20;1.00
12438;DHT22;6283;51.330;12.374;2023-10-13T09:28:14;19.20;1.00
12438;DHT22;6283;51.330;12.374;2023-10-13T09:30:49;19.20;1.00
12438;DHT22;6283;51.330;12.374;2023-10-13T09:33:20;19.20;1.00
12438;DHT22;6283;51.330;12.374;2023-10-13T09:35:54;19.30;1.00
12438;DHT22;6283;51.330;12.374;2023-10-13T09:38:20;19.30;1.00
12438;DHT22;6283;51.330;12.374;2023-10-13T09:40:46;19.30;1.00
12438;DHT22;6283;51.330;12.374;2023-10-13T09:43:16;19.40;1.00
12438;DHT22;6283;51.330;12.374;2023-10-13T09:45:45;19.40;1.00
12438;DHT22;6283;51.330;12.374;2023-10-13T09:48:37;19.40;99.90
12438;DHT22;6283;51.330;12.374;2023-10-13T09:51:14;19.50;1.00
12438;DHT22;6283;51.330;12.374;2023-10-13T09:53:41;19.50;99.90
12438;DHT22;6283;51.330;12.374;2023-10-13T09:56:16;19.50;99.90
12438;DHT22;6283;51.330;12.374;2023-10-13T09:58:58;19.50;99.90
12438;DHT22;6283;51.330;12.374;2023-10-13T10:01:30;19.50;99.90
12438;DHT22;6283;51.330;12.374;2023-10-13T10:04:08;19.60;99.90
12438;DHT22;6283;51.330;12.374;2023-10-13T10:06:36;19.60;99.90
12438;DHT22;6283;51.330;12.374;2023-10-13T10:09:09;19.60;99.90
12438;DHT22;6283;51.330;12.374;2023-10-13T10:17:05;19.70;99.90
12438;DHT22;6283;51.330;12.374;2023-10-13T10:22:13;19.80;99.90
12438;DHT22;6283;51.330;12.374;2023-10-13T10:24:56;19.90;99.90
12438;DHT22;6283;51.330;12.374;2023-10-13T10:27:30;20.00;99.90
12438;DHT22;6283;51.330;12.374;2023-10-13T10:29:57;20.00;99.90
12438;DHT22;6283;51.330;12.374;2023-10-13T10:32:38;20.10;99.90
12438;DHT22;6283;51.330;12.374;2023-10-13T10:35:08;20.10;99.90
12438;DHT22;6283;51.330;12.374;2023-10-13T10:37:46;20.20;99.90
12438;DHT22;6283;51.330;12.374;2023-10-13T10:40:14;20.20;99.90
12438;DHT22;6283;51.330;12.374;2023-10-13T10:42:59;20.30;99.90
12438;DHT22;6283;51.330;12.374;2023-10-13T10:45:27;20.40;99.90
12438;DHT22;6283;51.330;12.374;2023-10-13T10:47:58;20.40;99.90
12438;DHT22;6283;51.330;12.374;2023-10-13T10:50:27;20.40;99.90
12438;DHT22;6283;51.330;12.374;2023-10-13T10:53:05;20.50;99.90
12438;DHT22;6283;51.330;12.374;2023-10-13T10:55:36;20.50;99.90
12438;DHT22;6283;51.330;12.374;2023-10-13T10:58:02;20.50;99.90
12438;DHT22;6283;51.330;12.374;2023-10-13T11:00:31;20.60;99.90
12438;DHT22;6283;51.330;12.374;2023-10-13T11:03:12;20.70;80.80
12438;DHT22;6283;51.330;12.374;2023-10-13T11:05:47;20.70;49.60
12438;DHT22;6283;51.330;12.374;2023-10-13T11:08:25;20.80;28.10
12438;DHT22;6283;51.330;12.374;2023-10-13T11:10:58;20.90;12.90
12438;DHT22;6283;51.330;12.374;2023-10-13T11:13:26;20.90;8.60
12438;DHT22;6283;51.330;12.374;2023-10-13T11:15:56;21.00;1.00
12438;DHT22;6283;51.330;12.374;2023-10-13T11:18:32;21.00;1.00
12438;DHT22;6283;51.330;12.374;2023-10-13T11:21:06;21.10;1.00
12438;DHT22;6283;51.330;12.374;2023-10-13T11:23:33;21.10;1.00
12438;DHT22;6283;51.330;12.374;2023-10-13T11:26:02;21.20;1.00
12438;DHT22;6283;51.330;12.374;2023-10-13T11:28:29;21.20;1.00
12438;DHT22;6283;51.330;12.374;2023-10-13T11:30:57;21.30;1.00
12438;DHT22;6283;51.330;12.374;2023-10-13T11:33:36;21.40;1.00
12438;DHT22;6283;51.330;12.374;2023-10-13T11:36:01;21.40;1.00
12438;DHT22;6283;51.330;12.374;2023-10-13T11:38:30;21.50;1.00
12438;DHT22;6283;51.330;12.374;2023-10-13T11:41:17;21.60;1.00
12438;DHT22;6283;51.330;12.374;2023-10-13T11:43:48;21.70;1.00
12438;DHT22;6283;51.330;12.374;2023-10-13T11:46:19;21.70;1.00
12438;DHT22;6283;51.330;12.374;2023-10-13T11:49:01;21.90;1.00
12438;DHT22;6283;51.330;12.374;2023-10-13T11:51:34;22.00;1.00
12438;DHT22;6283;51.330;12.374;2023-10-13T11:54:03;22.10;1.00
12438;DHT22;6283;51.330;12.374;2023-10-13T11:56:29;22.20;1.00
12438;DHT22;6283;51.330;12.374;2023-10-13T11:58:54;22.20;1.00
12438;DHT22;6283;51.330;12.374;2023-10-13T12:01:27;22.20;1.00
12438;DHT22;6283;51.330;12.374;2023-10-13T12:04:12;22.20;1.00
12438;DHT22;6283;51.330;12.374;2023-10-13T12:06:58;22.20;1.00
12438;DHT22;6283;51.330;12.374;2023-10-13T12:09:48;22.30;1.00
12438;DHT22;6283;51.330;12.374;2023-10-13T12:12:26;22.30;1.00
12438;DHT22;6283;51.330;12.374;2023-10-13T12:14:53;22.40;1.00
12438;DHT22;6283;51.330;12.374;2023-10-13T12:17:23;22.50;1.00
12438;DHT22;6283;51.330;12.374;2023-10-13T12:20:10;22.70;1.00
12438;DHT22;6283;51.330;12.374;2023-10-13T12:22:36;23.00;1.00
12438;DHT22;6283;51.330;12.374;2023-10-13T12:25:10;23.30;1.00
12438;DHT22;6283;51.330;12.374;2023-10-13T12:28:00;23.60;1.00
12438;DHT22;6283;51.330;12.374;2023-10-13T12:30:47;23.90;1.00
12438;DHT22;6283;51.330;12.374;2023-10-13T12:33:21;24.10;1.00
12438;DHT22;6283;51.330;12.374;2023-10-13T12:36:00;24.40;1.00
12438;DHT22;6283;51.330;12.374;2023-10-13T12:38:40;24.70;1.00
12438;DHT22;6283;51.330;12.374;2023-10-13T12:41:16;25.10;1.00
12438;DHT22;6283;51.330;12.374;2023-10-13T12:44:00;25.60;1.00
12438;DHT22;6283;51.330;12.374;2023-10-13T12:46:45;25.80;1.00
12438;DHT22;6283;51.330;12.374;2023-10-13T12:49:29;25.80;1.00
12438;DHT22;6283;51.330;12.374;2023-10-13T12:52:07;25.60;1.00
12438;DHT22;6283;51.330;12.374;2023-10-13T12:54:48;25.40;1.00
12438;DHT22;6283;51.330;12.374;2023-10-13T12:57:23;25.20;1.00
12438;DHT22;6283;51.330;12.374;2023-10-13T12:59:52;25.00;1.00
12438;DHT22;6283;51.330;12.374;2023-10-13T13:02:20;25.00;1.00
12438;DHT22;6283;51.330;12.374;2023-10-13T13:04:46;25.10;1.00
12438;DHT22;6283;51.330;12.374;2023-10-13T13:07:13;25.20;1.00
12438;DHT22;6283;51.330;12.374;2023-10-13T13:09:40;25.30;1.00
12438;DHT22;6283;51.330;12.374;2023-10-13T13:12:06;25.30;1.00
12438;DHT22;6283;51.330;12.374;2023-10-13T13:14:32;25.20;1.00
12438;DHT22;6283;51.330;12.374;2023-10-13T13:17:00;25.20;99.90
12438;DHT22;6283;51.330;12.374;2023-10-13T13:19:35;25.10;1.00
12438;DHT22;6283;51.330;12.374;2023-10-13T13:22:05;25.10;1.40
12438;DHT22;6283;51.330;12.374;2023-10-13T13:24:34;25.00;1.40
12438;DHT22;6283;51.330;12.374;2023-10-13T13:27:00;25.00;1.00
12438;DHT22;6283;51.330;12.374;2023-10-13T13:29:29;24.90;99.90
12438;DHT22;6283;51.330;12.374;2023-10-13T13:31:55;24.80;99.90
12438;DHT22;6283;51.330;12.374;2023-10-13T13:34:20;24.70;99.90
12438;DHT22;6283;51.330;12.374;2023-10-13T13:36:49;24.60;99.90
12438;DHT22;6283;51.330;12.374;2023-10-13T13:39:21;24.50;99.90
12438;DHT22;6283;51.330;12.374;2023-10-13T13:41:56;24.50;99.90
12438;DHT22;6283;51.330;12.374;2023-10-13T13:44:24;24.50;99.90
12438;DHT22;6283;51.330;12.374;2023-10-13T13:46:57;24.50;99.90
12438;DHT22;6283;51.330;12.374;2023-10-13T13:49:23;24.50;99.90
12438;DHT22;6283;51.330;12.374;2023-10-13T13:51:56;24.70;99.90
12438;DHT22;6283;51.330;12.374;2023-10-13T13:54:22;25.10;99.90
12438;DHT22;6283;51.330;12.374;2023-10-13T13:56:47;25.40;99.90
12438;DHT22;6283;51.330;12.374;2023-10-13T13:59:13;25.50;99.90
12438;DHT22;6283;51.330;12.374;2023-10-13T14:01:45;25.60;99.90
12438;DHT22;6283;51.330;12.374;2023-10-13T14:04:11;25.60;99.90
12438;DHT22;6283;51.330;12.374;2023-10-13T14:06:37;25.50;99.90
12438;DHT22;6283;51.330;12.374;2023-10-13T14:09:04;25.40;99.90
12438;DHT22;6283;51.330;12.374;2023-10-13T14:11:40;25.30;99.90
12438;DHT22;6283;51.330;12.374;2023-10-13T14:14:15;25.20;99.90
12438;DHT22;6283;51.330;12.374;2023-10-13T14:16:50;25.10;99.90
12438;DHT22;6283;51.330;12.374;2023-10-13T14:19:16;25.00;99.90
12438;DHT22;6283;51.330;12.374;2023-10-13T14:24:20;24.70;99.90
12438;DHT22;6283;51.330;12.374;2023-10-13T14:26:56;24.50;99.90
12438;DHT22;6283;51.330;12.374;2023-10-13T14:29:22;24.50;99.90
12438;DHT22;6283;51.330;12.374;2023-10-13T14:31:51;24.40;99.90
12438;DHT22;6283;51.330;12.374;2023-10-13T14:34:17;24.30;99.90
12438;DHT22;6283;51.330;12.374;2023-10-13T14:36:43;24.20;99.90
12438;DHT22;6283;51.330;12.374;2023-10-13T14:39:14;24.10;99.90
12438;DHT22;6283;51.330;12.374;2023-10-13T14:41:40;24.10;99.90
12438;DHT22;6283;51.330;12.374;2023-10-13T14:44:05;24.00;99.90
12438;DHT22;6283;51.330;12.374;2023-10-13T14:46:32;24.00;99.90
12438;DHT22;6283;51.330;12.374;2023-10-13T14:49:01;23.90;99.90
12438;DHT22;6283;51.330;12.374;2023-10-13T14:51:28;23.90;99.90
12438;DHT22;6283;51.330;12.374;2023-10-13T14:53:55;23.90;99.90
12438;DHT22;6283;51.330;12.374;2023-10-13T14:56:26;23.80;99.90
12438;DHT22;6283;51.330;12.374;2023-10-13T14:58:53;23.80;99.90
12438;DHT22;6283;51.330;12.374;2023-10-13T15:01:23;23.80;99.90
12438;DHT22;6283;51.330;12.374;2023-10-13T15:03:52;23.80;99.90
12438;DHT22;6283;51.330;12.374;2023-10-13T15:06:27;23.80;99.90
12438;DHT22;6283;51.330;12.374;2023-10-13T15:08:57;23.80;99.90
12438;DHT22;6283;51.330;12.374;2023-10-13T15:11:23;23.80;99.90
12438;DHT22;6283;51.330;12.374;2023-10-13T15:13:55;23.80;99.90
12438;DHT22;6283;51.330;12.374;2023-10-13T15:16:24;23.70;99.90
12438;DHT22;6283;51.330;12.374;2023-10-13T15:18:51;23.70;99.90
12438;DHT22;6283;51.330;12.374;2023-10-13T15:21:25;23.70;99.90
12438;DHT22;6283;51.330;12.374;2023-10-13T15:24:06;23.70;99.90
12438;DHT22;6283;51.330;12.374;2023-10-13T15:26:46;23.60;99.90
12438;DHT22;6283;51.330;12.374;2023-10-13T15:29:16;23.60;99.90
12438;DHT22;6283;51.330;12.374;2023-10-13T15:31:45;23.50;99.90
12438;DHT22;6283;51.330;12.374;2023-10-13T15:34:27;23.50;99.90
12438;DHT22;6283;51.330;12.374;2023-10-13T15:36:53;23.40;99.90
12438;DHT22;6283;51.330;12.374;2023-10-13T15:39:20;23.40;99.90
12438;DHT22;6283;51.330;12.374;2023-10-13T15:41:57;23.40;99.90
12438;DHT22;6283;51.330;12.374;2023-10-13T15:44:28;23.30;99.90
12438;DHT22;6283;51.330;12.374;2023-10-13T15:46:58;23.30;99.90
12438;DHT22;6283;51.330;12.374;2023-10-13T15:49:24;23.30;99.90
12438;DHT22;6283;51.330;12.374;2023-10-13T15:51:53;23.20;99.90
12438;DHT22;6283;51.330;12.374;2023-10-13T15:54:21;23.20;99.90
12438;DHT22;6283;51.330;12.374;2023-10-13T15:56:50;23.20;99.90
12438;DHT22;6283;51.330;12.374;2023-10-13T15:59:20;23.20;99.90
12438;DHT22;6283;51.330;12.374;2023-10-13T16:01:48;23.20;99.90
12438;DHT22;6283;51.330;12.374;2023-10-13T16:04:14;23.20;99.90
12438;DHT22;6283;51.330;12.374;2023-10-13T16:06:41;23.20;99.90
12438;DHT22;6283;51.330;12.374;2023-10-13T16:09:07;23.20;99.90
12438;DHT22;6283;51.330;12.374;2023-10-13T16:11:45;23.20;99.90
12438;DHT22;6283;51.330;12.374;2023-10-13T16:14:12;23.20;99.90
12438;DHT22;6283;51.330;12.374;2023-10-13T16:16:44;23.20;99.90
12438;DHT22;6283;51.330;12.374;2023-10-13T16:19:10;23.20;99.90
12438;DHT22;6283;51.330;12.374;2023-10-13T16:21:36;23.20;99.90
12438;DHT22;6283;51.330;12.374;2023-10-13T16:24:05;23.20;99.90
12438;DHT22;6283;51.330;12.374;2023-10-13T16:26:36;23.20;99.90
12438;DHT22;6283;51.330;12.374;2023-10-13T16:29:02;23.30;99.90
12438;DHT22;6283;51.330;12.374;2023-10-13T16:31:27;23.30;99.90
12438;DHT22;6283;51.330;12.374;2023-10-13T16:33:54;23.30;99.90
12438;DHT22;6283;51.330;12.374;2023-10-13T16:36:25;23.30;99.90